createdAt,value
2022-12-20T00:03:22.011Z,-3.90
2022-12-20T00:08:24.774Z,-3.70
2022-12-20T00:13:27.616Z,-3.70
2022-12-20T00:18:31.715Z,-3.70
2022-12-20T00:23:35.353Z,-3.60
2022-12-20T00:28:39.668Z,-3.60
2022-12-20T00:33:46.520Z,-3.50
2022-12-20T00:38:51.100Z,-3.40
2022-12-20T00:43:54.239Z,-3.30
2022-12-20T00:48:58.747Z,-3.20
2022-12-20T00:54:01.386Z,-3.20
2022-12-20T00:59:04.085Z,-3.10
2022-12-20T01:04:06.798Z,-3.10
2022-12-20T01:09:11.624Z,-3.00
2022-12-20T01:14:16.380Z,-2.90
2022-12-20T01:19:19.408Z,-2.80
2022-12-20T01:24:22.065Z,-2.70
2022-12-20T01:29:24.880Z,-2.60
2022-12-20T01:34:27.553Z,-2.60
2022-12-20T01:39:30.256Z,-2.60
2022-12-20T01:44:32.798Z,-2.60
2022-12-20T01:49:43.245Z,-2.60
2022-12-20T01:54:48.942Z,-2.50
2022-12-20T01:59:52.851Z,-2.40
2022-12-20T02:04:56.300Z,-2.30
2022-12-20T02:10:01.210Z,-2.20
2022-12-20T02:15:22.721Z,-2.20
2022-12-20T02:20:37.363Z,-2.20
2022-12-20T02:26:20.039Z,-2.10
2022-12-20T02:31:32.486Z,-2.10
2022-12-20T02:36:36.443Z,-2.10
2022-12-20T02:41:45.882Z,-2.10
2022-12-20T02:46:49.375Z,-2.10
2022-12-20T02:51:54.610Z,-2.00
2022-12-20T02:57:02.988Z,-1.90
2022-12-20T03:02:06.660Z,-1.90
2022-12-20T03:07:13.058Z,-1.80
2022-12-20T03:12:16.389Z,-1.80
2022-12-20T03:17:19.370Z,-1.70
2022-12-20T03:22:23.639Z,-1.70
2022-12-20T03:27:28.392Z,-1.60
2022-12-20T03:32:32.892Z,-1.60
2022-12-20T03:37:35.611Z,-1.60
2022-12-20T03:42:40.536Z,-1.50
2022-12-20T03:47:43.458Z,-1.40
2022-12-20T03:52:46.681Z,-1.50
2022-12-20T03:57:49.393Z,-1.70
2022-12-20T04:03:03.172Z,-1.80
2022-12-20T04:08:06.584Z,-2.00
2022-12-20T04:13:09.304Z,-2.20
2022-12-20T04:18:12.379Z,-2.40
2022-12-20T04:23:15.625Z,-2.40
2022-12-20T04:28:18.576Z,-2.50
2022-12-20T04:33:21.291Z,-2.60
2022-12-20T04:38:24.273Z,-2.80
2022-12-20T04:43:29.272Z,-2.80
2022-12-20T04:48:56.363Z,-3.00
2022-12-20T04:53:58.241Z,-3.00
2022-12-20T04:59:21.060Z,-3.10
2022-12-20T05:04:31.601Z,-3.00
2022-12-20T05:09:37.853Z,-3.20
2022-12-20T05:14:41.235Z,-3.10
2022-12-20T05:19:44.703Z,-3.10
2022-12-20T05:25:07.484Z,-3.00
2022-12-20T05:30:13.954Z,-3.00
2022-12-20T05:35:17.179Z,-3.00
2022-12-20T05:40:23.696Z,-2.90
2022-12-20T05:45:26.859Z,-2.90
2022-12-20T05:50:36.150Z,-2.80
2022-12-20T05:55:57.511Z,-2.90
2022-12-20T06:01:10.674Z,-2.90
2022-12-20T06:06:15.495Z,-3.00
2022-12-20T06:11:27.643Z,-2.90
2022-12-20T06:16:38.539Z,-2.80
2022-12-20T06:21:43.204Z,-2.70
2022-12-20T06:26:48.944Z,-2.50
2022-12-20T06:31:53.619Z,-2.50
2022-12-20T06:36:56.371Z,-2.50
2022-12-20T06:42:02.200Z,-2.30
2022-12-20T06:47:05.271Z,-2.20
2022-12-20T06:52:08.099Z,-2.20
2022-12-20T06:57:30.431Z,-2.00
2022-12-20T07:02:33.278Z,-1.90
2022-12-20T07:07:42.797Z,-1.80
2022-12-20T07:12:48.353Z,-1.80
2022-12-20T07:17:52.149Z,-1.80
2022-12-20T07:22:54.959Z,-1.70
2022-12-20T07:27:57.982Z,-1.70
2022-12-20T07:33:00.647Z,-1.50
2022-12-20T07:38:03.444Z,-1.30
2022-12-20T07:43:06.362Z,-0.90
2022-12-20T07:48:13.777Z,-0.50
2022-12-20T07:53:18.270Z,0.00
2022-12-20T07:58:22.076Z,0.40
2022-12-20T08:03:32.131Z,0.50
2022-12-20T08:08:39.021Z,0.90
2022-12-20T08:13:46.268Z,0.90
2022-12-20T08:18:49.787Z,1.00
2022-12-20T08:23:53.084Z,1.60
2022-12-20T08:28:56.594Z,2.10
2022-12-20T08:33:59.385Z,2.10
2022-12-20T08:39:06.572Z,2.00
2022-12-20T08:44:11.405Z,2.10
2022-12-20T08:49:14.314Z,2.20
2022-12-20T08:54:17.876Z,2.30
2022-12-20T08:59:20.675Z,3.00
2022-12-20T09:04:23.551Z,4.70
2022-12-20T09:09:26.298Z,5.40
2022-12-20T09:14:29.061Z,5.00
2022-12-20T09:19:31.888Z,4.10
2022-12-20T09:24:34.591Z,3.70
2022-12-20T09:29:37.291Z,4.10
2022-12-20T09:34:40.015Z,4.20
2022-12-20T09:39:42.822Z,4.00
2022-12-20T09:44:45.491Z,3.90
2022-12-20T09:49:50.965Z,4.00
2022-12-20T09:55:18.787Z,4.90
2022-12-20T10:00:22.265Z,4.60
2022-12-20T10:05:49.911Z,4.10
2022-12-20T10:11:14.269Z,3.60
2022-12-20T10:16:37.456Z,3.90
2022-12-20T10:21:48.363Z,6.90
2022-12-20T10:26:51.990Z,6.70
2022-12-20T10:32:01.042Z,5.60
2022-12-20T10:37:16.258Z,4.30
2022-12-20T10:42:40.918Z,3.60
2022-12-20T10:47:46.610Z,3.90
2022-12-20T10:53:11.172Z,4.20
2022-12-20T10:58:14.255Z,5.00
2022-12-20T11:03:22.898Z,5.00
2022-12-20T11:08:41.303Z,5.10
2022-12-20T11:13:52.171Z,5.90
2022-12-20T11:19:12.980Z,6.50
2022-12-20T11:24:44.590Z,5.80
2022-12-20T11:30:33.704Z,6.10
2022-12-20T11:36:07.463Z,4.30
2022-12-20T11:41:33.321Z,3.90
2022-12-20T11:46:47.940Z,3.40
2022-12-20T11:52:00.757Z,3.20
2022-12-20T11:57:19.011Z,3.20
2022-12-20T12:02:44.220Z,3.30
2022-12-20T12:07:54.864Z,3.40
2022-12-20T12:13:23.936Z,3.70
2022-12-20T12:18:34.786Z,3.70
2022-12-20T12:24:02.104Z,3.60
2022-12-20T12:29:13.331Z,3.60
2022-12-20T12:34:22.282Z,3.60
2022-12-20T12:39:49.740Z,3.40
2022-12-20T12:45:07.110Z,3.30
2022-12-20T12:50:24.782Z,3.30
2022-12-20T12:55:43.384Z,3.20
2022-12-20T13:00:53.018Z,3.40
2022-12-20T13:05:55.838Z,3.50
2022-12-20T13:11:00.660Z,3.60
2022-12-20T13:16:11.167Z,3.40
2022-12-20T13:21:29.858Z,3.40
2022-12-20T13:26:54.853Z,3.40
2022-12-20T13:31:57.909Z,3.20
2022-12-20T13:37:00.687Z,2.90
2022-12-20T13:42:31.245Z,2.80
2022-12-20T13:47:46.992Z,2.60
2022-12-20T13:52:50.996Z,2.60
2022-12-20T13:57:55.226Z,2.50
2022-12-20T14:02:58.425Z,2.40
2022-12-20T14:08:07.734Z,2.20
2022-12-20T14:13:27.385Z,2.20
2022-12-20T14:18:30.098Z,2.10
2022-12-20T14:23:41.765Z,2.00
2022-12-20T14:28:49.865Z,1.80
2022-12-20T14:34:01.917Z,1.60
2022-12-20T14:39:27.999Z,1.50
2022-12-20T14:44:32.271Z,1.40
2022-12-20T14:49:38.288Z,1.10
2022-12-20T14:55:08.774Z,1.10
2022-12-20T15:00:18.327Z,1.00
2022-12-20T15:05:41.369Z,1.10
2022-12-20T15:10:53.740Z,1.10
2022-12-20T15:15:58.478Z,1.00
2022-12-20T15:21:14.560Z,1.00
2022-12-20T15:26:19.834Z,1.00
2022-12-20T15:31:33.084Z,1.00
2022-12-20T15:36:36.591Z,1.10
2022-12-20T15:41:42.977Z,1.10
2022-12-20T15:46:45.876Z,1.10
2022-12-20T15:51:51.162Z,1.00
2022-12-20T15:56:55.017Z,1.10
2022-12-20T16:01:57.926Z,1.10
2022-12-20T16:07:00.597Z,1.10
2022-12-20T16:12:03.809Z,1.20
2022-12-20T16:17:06.515Z,1.20
2022-12-20T16:22:16.359Z,1.30
2022-12-20T16:27:19.558Z,1.30
2022-12-20T16:32:22.299Z,1.30
2022-12-20T16:37:25.047Z,1.20
2022-12-20T16:42:27.771Z,1.20
2022-12-20T16:47:30.610Z,1.20
2022-12-20T16:52:37.174Z,1.20
2022-12-20T16:57:40.076Z,1.20
2022-12-20T17:02:43.099Z,1.10
2022-12-20T17:07:45.903Z,0.80
2022-12-20T17:12:48.823Z,0.60
2022-12-20T17:17:52.097Z,0.50
2022-12-20T17:22:56.100Z,0.20
2022-12-20T17:27:59.025Z,0.10
2022-12-20T17:33:02.544Z,0.10
2022-12-20T17:38:07.841Z,0.10
2022-12-20T17:43:14.287Z,0.10
2022-12-20T17:48:17.033Z,0.10
2022-12-20T17:53:19.697Z,0.20
2022-12-20T17:58:22.399Z,0.10
2022-12-20T18:04:01.595Z,0.10
2022-12-20T18:08:55.691Z,0.00
2022-12-20T18:13:59.573Z,0.00
2022-12-20T18:19:02.878Z,-0.10
2022-12-20T18:24:05.747Z,0.10
2022-12-20T18:29:08.529Z,0.10
2022-12-20T18:34:11.207Z,0.20
2022-12-20T18:39:14.365Z,0.20
2022-12-20T18:44:17.038Z,0.10
2022-12-20T18:49:19.866Z,0.10
2022-12-20T18:54:22.430Z,0.20
2022-12-20T18:59:25.147Z,0.20
2022-12-20T19:04:27.932Z,0.30
2022-12-20T19:09:30.680Z,0.30
2022-12-20T19:14:33.310Z,0.40
2022-12-20T19:19:35.958Z,0.60
2022-12-20T19:24:38.599Z,0.60
2022-12-20T19:29:41.442Z,0.50
2022-12-20T19:34:44.170Z,0.60
2022-12-20T19:39:46.770Z,0.70
2022-12-20T19:44:49.364Z,0.70
2022-12-20T19:49:52.394Z,0.70
2022-12-20T19:55:01.358Z,0.60
2022-12-20T20:00:05.949Z,0.50
2022-12-20T20:05:15.353Z,0.50
2022-12-20T20:10:18.934Z,0.40
2022-12-20T20:15:21.730Z,0.20
2022-12-20T20:20:24.338Z,0.00
2022-12-20T20:25:27.053Z,-0.30
2022-12-20T20:30:30.057Z,-0.50
2022-12-20T20:35:32.920Z,-0.60
2022-12-20T20:40:35.665Z,-0.90
2022-12-20T20:45:38.354Z,-1.10
2022-12-20T20:50:41.448Z,-1.20
2022-12-20T20:55:44.716Z,-1.30
2022-12-20T21:01:01.822Z,-1.20
2022-12-20T21:06:38.638Z,-1.40
2022-12-20T21:11:30.623Z,-1.30
2022-12-20T21:16:33.489Z,-1.40
2022-12-20T21:21:36.233Z,-1.60
2022-12-20T21:26:38.937Z,-1.70
2022-12-20T21:31:41.705Z,-1.60
2022-12-20T21:36:44.625Z,-1.40
2022-12-20T21:41:47.279Z,-1.30
2022-12-20T21:46:50.037Z,-1.40
2022-12-20T21:51:56.691Z,-1.30
2022-12-20T21:56:59.416Z,-1.30
2022-12-20T22:02:02.205Z,-1.30
2022-12-20T22:07:05.067Z,-1.20
2022-12-20T22:12:07.626Z,-1.30
2022-12-20T22:17:10.215Z,-1.30
2022-12-20T22:22:12.785Z,-1.60
2022-12-20T22:27:15.364Z,-1.70
2022-12-20T22:32:18.176Z,-1.80
2022-12-20T22:37:20.831Z,-1.80
2022-12-20T22:42:23.527Z,-1.80
2022-12-20T22:47:26.117Z,-2.00
2022-12-20T22:52:28.683Z,-2.10
2022-12-20T22:57:32.951Z,-2.10
2022-12-20T23:02:35.741Z,-2.20
2022-12-20T23:07:38.436Z,-2.30
2022-12-20T23:13:01.222Z,-2.30
2022-12-20T23:18:03.820Z,-2.20
2022-12-20T23:23:08.801Z,-2.40
2022-12-20T23:28:11.380Z,-2.40
2022-12-20T23:33:13.970Z,-2.40
2022-12-20T23:38:16.523Z,-2.20
2022-12-20T23:43:19.590Z,-2.20
2022-12-20T23:48:22.288Z,-2.20
2022-12-20T23:53:24.805Z,-2.00
2022-12-20T23:58:27.549Z,-2.00
